Time;durP1;ratioP1;P1;durP2;ratioP2;P2;SDS_P1;SDS_P2;PMS_P1;PMS_P2;Temp;Humidity;BMP_temperature;BMP_pressure;BME280_temperature;BME280_humidity;BME280_pressure;Samples;Min_cycle;Max_cycle;Signal;HPM_P1;HPM_P2
2022/10/07 00:00:17;;;;;;;6.32;2.42;;;;;;;8.35;89.13;99812.72;4107324;28;20209;-51
2022/10/07 00:02:19;;;;;;;3.60;2.67;;;;;;;8.33;89.06;99810.19;4123779;28;20595;-51
2022/10/07 00:04:21;;;;;;;2.95;2.33;;;;;;;8.36;89.26;99808.94;4108023;28;20222;-52
2022/10/07 00:06:22;;;;;;;5.50;2.75;;;;;;;8.33;89.03;99803.88;4125374;28;20694;-52
2022/10/07 00:08:24;;;;;;;3.78;1.80;;;;;;;8.28;89.22;99811.84;4124017;28;20591;-53
2022/10/07 00:10:26;;;;;;;2.95;2.25;;;;;;;8.25;89.56;99817.69;4122621;28;20219;-53
2022/10/07 00:12:28;;;;;;;3.50;2.45;;;;;;;8.20;89.26;99823.75;4108554;28;20215;-52
2022/10/07 00:14:30;;;;;;;3.88;1.80;;;;;;;8.20;89.25;99820.19;4106462;28;20233;-52
2022/10/07 00:16:37;;;;;;;4.40;1.88;;;;;;;8.22;89.45;99818.13;4121970;28;20293;-52
2022/10/07 00:18:40;;;;;;;4.95;2.30;;;;;;;8.23;89.50;99809.72;4122954;28;20252;-51
2022/10/07 00:20:43;;;;;;;6.38;3.80;;;;;;;8.23;89.61;99814.34;4123000;28;22256;-54
2022/10/07 00:22:45;;;;;;;3.03;2.25;;;;;;;8.16;89.60;99803.34;4105719;28;20207;-52
2022/10/07 00:24:47;;;;;;;3.33;2.17;;;;;;;8.13;89.40;99813.81;4125137;28;20219;-53
2022/10/07 00:26:49;;;;;;;3.42;2.28;;;;;;;8.13;89.29;99813.81;4124358;28;20202;-53
2022/10/07 00:28:51;;;;;;;2.80;2.13;;;;;;;8.12;89.26;99807.56;4124189;28;20217;-52
2022/10/07 00:30:57;;;;;;;2.95;2.20;;;;;;;8.10;89.35;99803.34;4122836;28;20209;-50
2022/10/07 00:32:59;;;;;;;2.45;1.60;;;;;;;8.00;89.07;99798.25;4102486;28;20235;-51
2022/10/07 00:35:01;;;;;;;6.57;2.10;;;;;;;7.97;89.52;99798.69;4108544;28;20298;-51
2022/10/07 00:37:03;;;;;;;2.25;2.00;;;;;;;8.00;89.49;99798.25;4108300;28;20579;-52
2022/10/07 00:39:07;;;;;;;7.15;2.40;;;;;;;7.97;89.28;99797.81;4127518;28;20649;-53
2022/10/07 00:41:16;;;;;;;4.28;3.08;;;;;;;7.92;89.86;99790.25;4124205;28;20214;-51
2022/10/07 00:43:19;;;;;;;2.90;1.90;;;;;;;7.93;89.77;99785.63;4124036;28;20229;-54
2022/10/07 00:45:20;;;;;;;2.42;2.22;;;;;;;7.90;90.18;99788.78;4127041;28;20197;-51
2022/10/07 00:47:28;;;;;;;3.85;1.98;;;;;;;7.78;90.09;99776.75;4126854;28;20199;-51
2022/10/07 00:49:34;;;;;;;3.65;2.40;;;;;;;7.74;90.83;99780.91;4122644;28;20210;-51
2022/10/07 00:51:36;;;;;;;2.60;2.40;;;;;;;7.72;90.57;99777.56;4108302;28;20219;-51
2022/10/07 00:53:39;;;;;;;5.78;1.98;;;;;;;7.70;90.66;99771.47;4121113;28;21385;-51
2022/10/07 00:55:42;;;;;;;5.45;2.63;;;;;;;7.69;90.69;99769.81;4124401;28;20203;-54
2022/10/07 00:57:44;;;;;;;4.05;2.15;;;;;;;7.66;90.52;99765.59;4106187;28;20591;-53
2022/10/07 00:59:46;;;;;;;3.00;1.65;;;;;;;7.69;90.49;99762.47;4121389;28;20794;-51
2022/10/07 01:01:49;;;;;;;2.17;1.75;;;;;;;7.70;90.75;99766.84;4103638;28;20214;-53
2022/10/07 01:03:51;;;;;;;3.33;2.58;;;;;;;7.70;90.34;99771.47;4103719;28;20258;-50
2022/10/07 01:05:53;;;;;;;4.43;2.72;;;;;;;7.66;90.65;99762.03;4122085;28;20209;-53
2022/10/07 01:07:55;;;;;;;4.18;2.45;;;;;;;7.63;90.67;99757.00;4121960;28;20728;-52
2022/10/07 01:10:00;;;;;;;5.32;2.45;;;;;;;7.63;90.94;99757.00;4107810;28;20732;-51
2022/10/07 01:12:26;;;;;;;3.33;2.20;;;;;;;7.58;90.35;99754.88;4121348;28;20213;-53
2022/10/07 01:14:40;;;;;;;2.97;2.42;;;;;;;7.59;89.94;99755.69;4122728;28;20230;-56
2022/10/07 01:17:02;;;;;;;4.72;2.15;;;;;;;7.57;90.38;99757.78;4109765;28;20785;-54
2022/10/07 01:19:32;;;;;;;2.70;2.50;;;;;;;7.57;90.08;99750.44;4118468;28;20310;-51
2022/10/07 01:21:39;;;;;;;4.45;2.53;;;;;;;7.57;90.24;99753.16;4122028;28;21132;-53
2022/10/07 01:24:17;;;;;;;4.90;2.10;;;;;;;7.59;89.99;99747.53;4122186;28;20645;-52
2022/10/07 01:26:46;;;;;;;3.67;1.88;;;;;;;7.58;89.91;99748.56;4109204;28;20708;-53
2022/10/07 01:28:57;;;;;;;5.75;2.50;;;;;;;7.58;89.94;99745.84;4124951;28;20210;-51
2022/10/07 01:31:00;;;;;;;6.20;2.55;;;;;;;7.57;89.96;99741.44;4107749;28;20237;-51
2022/10/07 01:33:04;;;;;;;4.45;2.38;;;;;;;7.50;90.22;99740.56;4120812;28;20754;-53
2022/10/07 01:35:10;;;;;;;3.90;1.80;;;;;;;7.46;89.81;99739.28;4108572;28;20207;-50
2022/10/07 01:37:14;;;;;;;4.20;2.10;;;;;;;7.41;90.24;99722.72;4106660;28;20349;-52
2022/10/07 01:39:18;;;;;;;7.40;2.45;;;;;;;7.41;90.12;99722.72;4104906;28;20238;-51
2022/10/07 01:41:21;;;;;;;2.03;1.90;;;;;;;7.35;90.01;99720.78;4106572;28;20293;-51
2022/10/07 01:43:23;;;;;;;3.78;2.10;;;;;;;7.29;90.56;99716.16;4121196;28;20218;-53
2022/10/07 01:45:29;;;;;;;5.78;2.60;;;;;;;7.28;90.74;99722.63;4123393;28;20301;-50
2022/10/07 01:47:32;;;;;;;3.28;1.80;;;;;;;7.25;90.53;99717.56;4122338;28;20297;-50
2022/10/07 01:49:33;;;;;;;2.13;1.92;;;;;;;7.23;90.77;99712.31;4122035;28;20209;-53
2022/10/07 01:51:38;;;;;;;1.70;1.60;;;;;;;7.23;90.93;99716.94;4110355;28;20265;-50
2022/10/07 01:53:50;;;;;;;4.00;2.15;;;;;;;7.19;90.90;99710.19;4119902;28;20244;-50
2022/10/07 01:56:13;;;;;;;2.88;2.05;;;;;;;7.18;91.09;99708.53;4124490;28;20198;-52
2022/10/07 01:58:52;;;;;;;1.70;1.52;;;;;;;7.09;91.22;99704.28;4105627;28;20234;-52
2022/10/07 02:01:32;;;;;;;2.10;1.90;;;;;;;7.06;90.80;99707.38;4109334;28;20285;-52
2022/10/07 02:03:50;;;;;;;1.80;1.70;;;;;;;7.05;91.54;99709.28;4120914;28;20221;-53
2022/10/07 02:06:10;;;;;;;8.32;2.05;;;;;;;7.02;91.20;99706.13;4108844;28;20217;-50
2022/10/07 02:08:22;;;;;;;4.15;1.92;;;;;;;6.95;90.63;99707.94;4124171;28;20209;-50
2022/10/07 02:11:01;;;;;;;2.38;2.03;;;;;;;6.95;90.66;99707.94;4107586;28;20277;-51
2022/10/07 02:13:15;;;;;;;2.28;1.52;;;;;;;6.99;91.50;99692.91;4111536;28;20282;-52
2022/10/07 02:15:24;;;;;;;4.18;2.22;;;;;;;6.96;90.95;99698.75;4123512;28;20296;-51
2022/10/07 02:17:26;;;;;;;4.57;1.98;;;;;;;6.95;91.07;99699.78;4110135;28;20207;-53
2022/10/07 02:19:31;;;;;;;3.45;1.80;;;;;;;6.93;90.59;99699.13;4110763;28;20293;-54
2022/10/07 02:21:35;;;;;;;4.60;1.92;;;;;;;6.92;91.21;99701.03;4129906;28;20296;-52
2022/10/07 02:23:39;;;;;;;3.13;2.58;;;;;;;6.92;91.21;99697.44;4112115;28;20329;-52
2022/10/07 02:25:46;;;;;;;4.13;2.10;;;;;;;6.80;90.82;99686.28;4124701;28;20225;-52
2022/10/07 02:27:51;;;;;;;5.20;2.05;;;;;;;6.77;90.79;99688.56;4127839;28;20218;-52
2022/10/07 02:29:56;;;;;;;3.00;2.17;;;;;;;6.75;91.32;99687.91;4111101;28;20211;-54
2022/10/07 02:32:01;;;;;;;11.18;2.15;;;;;;;6.73;91.22;99676.38;4109735;28;20233;-51
2022/10/07 02:34:04;;;;;;;1.88;1.67;;;;;;;6.71;90.76;99667.56;4126400;28;20230;-52
2022/10/07 02:36:15;;;;;;;3.85;1.88;;;;;;;6.68;91.64;99673.44;4091298;28;20301;-52
2022/10/07 02:38:18;;;;;;;3.40;1.55;;;;;;;6.75;91.34;99668.88;4123422;28;20295;-52
2022/10/07 02:40:21;;;;;;;2.42;1.90;;;;;;;6.75;91.55;99666.16;4108907;28;20218;-51
2022/10/07 02:42:32;;;;;;;6.90;1.60;;;;;;;6.73;91.59;99662.78;4121742;28;20688;-51
2022/10/07 02:44:48;;;;;;;3.00;1.52;;;;;;;6.70;91.47;99669.44;4123838;28;20253;-52
2022/10/07 02:47:13;;;;;;;6.75;2.00;;;;;;;6.72;91.87;99663.81;4120439;28;20286;-51
2022/10/07 02:49:17;;;;;;;3.47;2.00;;;;;;;6.77;91.35;99667.63;4106764;28;20273;-51
2022/10/07 02:51:21;;;;;;;3.47;1.58;;;;;;;6.79;91.42;99670.16;4123303;28;20208;-52
2022/10/07 02:53:25;;;;;;;3.97;1.58;;;;;;;6.75;91.33;99668.88;4107750;28;20238;-52
2022/10/07 02:55:28;;;;;;;3.95;1.85;;;;;;;6.74;91.54;99664.44;4127260;28;20209;-51
2022/10/07 02:57:32;;;;;;;3.13;1.52;;;;;;;6.70;91.27;99663.19;4123117;28;21214;-51
2022/10/07 02:59:36;;;;;;;1.95;1.58;;;;;;;6.65;91.70;99657.47;4124348;28;20240;-51
2022/10/07 03:01:44;;;;;;;1.85;1.73;;;;;;;6.65;91.34;99663.78;4123051;28;20361;-51
2022/10/07 03:03:45;;;;;;;3.65;1.73;;;;;;;6.67;91.58;99658.13;4105336;28;20690;-52
2022/10/07 03:05:48;;;;;;;2.35;1.98;;;;;;;6.64;91.58;99656.66;4105496;28;20219;-51
2022/10/07 03:07:53;;;;;;;1.80;1.67;;;;;;;6.52;91.93;99657.38;4120862;28;20349;-51
2022/10/07 03:09:55;;;;;;;5.68;2.25;;;;;;;6.53;91.97;99659.91;4105541;28;20245;-51
2022/10/07 03:11:56;;;;;;;3.40;1.63;;;;;;;6.47;91.82;99643.53;4107353;28;20749;-51
2022/10/07 03:13:58;;;;;;;2.03;1.83;;;;;;;6.55;91.74;99655.09;4106278;28;20226;-51
2022/10/07 03:16:03;;;;;;;2.15;1.45;;;;;;;6.54;91.85;99655.28;4107096;28;20218;-52
2022/10/07 03:18:05;;;;;;;5.00;2.75;;;;;;;6.52;91.79;99646.50;4105869;28;20273;-52
2022/10/07 03:20:08;;;;;;;3.60;2.10;;;;;;;6.47;91.60;99643.53;4123880;28;20216;-51
2022/10/07 03:22:10;;;;;;;9.60;1.83;;;;;;;6.45;92.00;99640.16;4120881;28;20297;-51
2022/10/07 03:24:11;;;;;;;6.38;2.15;;;;;;;6.44;91.86;99638.50;4121455;28;20229;-51
2022/10/07 03:26:13;;;;;;;1.65;1.55;;;;;;;6.46;92.01;99641.84;4122301;28;20247;-54
2022/10/07 03:28:15;;;;;;;2.90;2.30;;;;;;;6.42;91.96;99640.56;4124396;28;20462;-53
2022/10/07 03:30:19;;;;;;;6.18;2.35;;;;;;;6.41;91.62;99631.56;4108188;28;20215;-51
2022/10/07 03:32:27;;;;;;;2.35;2.05;;;;;;;6.38;91.85;99625.69;4124219;28;20658;-53
2022/10/07 03:34:30;;;;;;;2.33;1.92;;;;;;;6.40;91.74;99631.75;4105735;28;20476;-52
2022/10/07 03:36:32;;;;;;;6.20;2.40;;;;;;;6.37;91.79;99632.97;4120522;28;20391;-53
2022/10/07 03:38:34;;;;;;;2.17;1.95;;;;;;;6.29;91.88;99633.13;4120731;28;20260;-55
2022/10/07 03:40:37;;;;;;;4.10;2.97;;;;;;;6.30;91.31;99628.53;4124429;28;20226;-51
2022/10/07 03:42:39;;;;;;;3.17;2.38;;;;;;;6.20;91.62;99619.88;4109222;28;20221;-51
2022/10/07 03:44:40;;;;;;;6.28;1.98;;;;;;;6.15;91.59;99617.75;4108128;28;20234;-52
2022/10/07 03:46:42;;;;;;;2.33;1.73;;;;;;;6.17;91.72;99620.28;4111692;28;20301;-51
2022/10/07 03:48:45;;;;;;;3.13;1.92;;;;;;;6.20;91.82;99609.00;4125670;28;20668;-52
2022/10/07 03:50:51;;;;;;;2.33;2.20;;;;;;;6.22;91.83;99617.81;4124513;28;20217;-53
2022/10/07 03:52:52;;;;;;;2.97;2.28;;;;;;;6.24;91.81;99615.72;4124077;28;20211;-52
2022/10/07 03:54:55;;;;;;;2.28;1.65;;;;;;;6.15;91.68;99612.31;4109160;28;20288;-54
2022/10/07 03:56:57;;;;;;;2.80;1.92;;;;;;;6.10;91.75;99619.38;4123239;28;20296;-53
2022/10/07 03:58:59;;;;;;;2.00;1.88;;;;;;;6.10;92.04;99614.75;4123800;28;20583;-51
2022/10/07 04:01:09;;;;;;;3.03;2.25;;;;;;;6.10;92.03;99622.09;4123422;28;20213;-51
2022/10/07 04:03:12;;;;;;;3.65;2.05;;;;;;;6.06;91.54;99618.91;4122364;28;20229;-52
2022/10/07 04:05:16;;;;;;;3.08;2.15;;;;;;;6.05;92.23;99621.81;4122062;28;20217;-54
2022/10/07 04:07:20;;;;;;;2.55;2.00;;;;;;;6.02;91.86;99616.78;4109989;28;20217;-53
2022/10/07 04:09:25;;;;;;;11.15;2.15;;;;;;;6.00;92.21;99624.28;4125626;28;20205;-51
2022/10/07 04:11:27;;;;;;;4.50;2.28;;;;;;;6.05;92.23;99616.38;4120818;28;20210;-51
2022/10/07 04:13:29;;;;;;;3.33;2.50;;;;;;;5.98;92.13;99616.34;4124573;28;20827;-51
2022/10/07 04:15:30;;;;;;;4.85;2.35;;;;;;;5.98;91.86;99626.34;4123069;28;20659;-52
2022/10/07 04:17:32;;;;;;;6.90;3.05;;;;;;;6.01;91.89;99620.50;4109255;28;20238;-53
2022/10/07 04:19:34;;;;;;;7.82;2.88;;;;;;;6.05;92.19;99621.81;4123510;28;20222;-53
2022/10/07 04:21:36;;;;;;;4.95;3.20;;;;;;;6.05;91.90;99616.38;4125677;28;20212;-51
2022/10/07 04:23:39;;;;;;;2.03;1.83;;;;;;;6.04;91.55;99609.28;4107407;28;20603;-51
2022/10/07 04:25:42;;;;;;;3.80;2.08;;;;;;;6.03;92.15;99607.59;4125183;28;20209;-53
2022/10/07 04:27:44;;;;;;;5.82;2.70;;;;;;;5.97;92.29;99611.09;4111234;28;20206;-54
2022/10/07 04:29:52;;;;;;;2.50;2.30;;;;;;;5.97;92.26;99611.09;4108677;28;20242;-51
2022/10/07 04:31:54;;;;;;;1.98;1.85;;;;;;;5.89;91.96;99611.22;4123220;28;20232;-53
2022/10/07 04:33:56;;;;;;;3.17;1.77;;;;;;;5.84;92.33;99602.81;4119055;28;20248;-54
2022/10/07 04:36:08;;;;;;;2.22;2.03;;;;;;;5.92;92.40;99605.38;4124450;28;20213;-53
2022/10/07 04:38:11;;;;;;;5.15;2.00;;;;;;;5.86;92.58;99595.31;4124320;28;20300;-52
2022/10/07 04:40:13;;;;;;;2.63;2.10;;;;;;;5.84;92.63;99600.91;4119828;28;20783;-55
2022/10/07 04:44:35;;;;;;;2.58;1.50;;;;;;;5.73;92.33;99600.56;4106812;28;20230;-51
2022/10/07 04:46:38;;;;;;;2.75;1.73;;;;;;;5.68;92.72;99598.44;4121724;28;20201;-52
2022/10/07 04:48:44;;;;;;;8.23;1.40;;;;;;;5.64;92.32;99599.00;4119995;28;20210;-51
2022/10/07 04:50:47;;;;;;;4.55;1.67;;;;;;;5.68;92.49;99592.16;4123093;28;20205;-51
2022/10/07 04:52:50;;;;;;;2.60;1.50;;;;;;;5.74;92.90;99591.38;4120791;28;20250;-50
2022/10/07 04:54:51;;;;;;;2.58;1.80;;;;;;;5.69;92.38;99588.41;4104678;28;20318;-51
2022/10/07 04:56:53;;;;;;;2.67;1.80;;;;;;;5.73;92.04;99595.13;4120056;28;20300;-50
2022/10/07 04:58:55;;;;;;;3.50;2.30;;;;;;;5.66;91.87;99588.78;4119666;28;20961;-51
2022/10/07 05:00:58;;;;;;;2.60;2.35;;;;;;;5.59;92.33;99585.16;4121273;28;20310;-52
2022/10/07 05:03:00;;;;;;;2.22;2.03;;;;;;;5.57;92.69;99584.53;4119728;28;20241;-51
2022/10/07 05:05:03;;;;;;;2.65;1.50;;;;;;;5.52;92.47;99586.97;4124183;28;20261;-51
2022/10/07 05:07:04;;;;;;;5.22;1.83;;;;;;;5.58;92.49;99578.06;4122295;28;20210;-51
2022/10/07 05:09:06;;;;;;;2.80;1.85;;;;;;;5.51;92.45;99572.56;4123562;28;20664;-50
2022/10/07 05:11:08;;;;;;;4.38;2.05;;;;;;;5.54;92.48;99568.59;4102443;28;20207;-51
2022/10/07 05:13:11;;;;;;;3.90;1.75;;;;;;;5.59;92.72;99577.88;4102783;28;20227;-50
2022/10/07 05:15:13;;;;;;;2.65;1.98;;;;;;;5.54;92.44;99574.03;4109296;28;20234;-52
2022/10/07 05:17:15;;;;;;;2.13;1.73;;;;;;;5.57;92.78;99579.09;4121368;28;20333;-52
2022/10/07 05:19:18;;;;;;;4.68;4.38;;;;;;;5.49;92.56;99573.78;4121682;28;20325;-51
2022/10/07 05:21:19;;;;;;;7.90;2.55;;;;;;;5.44;92.49;99568.09;4118742;28;20237;-52
2022/10/07 05:23:23;;;;;;;4.78;1.92;;;;;;;5.43;92.71;99566.41;4106330;28;20833;-52
2022/10/07 05:25:29;;;;;;;3.35;3.05;;;;;;;5.43;92.70;99561.00;4107462;28;20210;-53
2022/10/07 05:27:31;;;;;;;2.10;1.80;;;;;;;5.43;92.71;99561.00;4123668;28;20206;-52
2022/10/07 05:29:33;;;;;;;2.70;1.90;;;;;;;5.45;93.05;99558.91;4121425;28;20778;-53
2022/10/07 05:31:35;;;;;;;7.20;2.30;;;;;;;5.41;92.69;99563.03;4094844;28;21149;-53
2022/10/07 05:33:38;;;;;;;5.82;1.70;;;;;;;5.39;92.75;99560.53;4117670;28;20768;-52
2022/10/07 05:35:45;;;;;;;2.17;1.98;;;;;;;5.42;92.79;99554.72;4117321;28;20228;-52
2022/10/07 05:37:47;;;;;;;2.95;2.15;;;;;;;5.35;92.94;99558.41;4101763;28;20214;-51
2022/10/07 05:39:51;;;;;;;4.82;2.08;;;;;;;5.34;92.92;99556.69;4109239;28;20326;-51
2022/10/07 05:41:54;;;;;;;2.38;1.83;;;;;;;5.33;93.03;99555.00;4122882;28;20293;-51
2022/10/07 05:43:55;;;;;;;3.67;2.10;;;;;;;5.32;92.79;99558.75;4110009;28;20238;-51
2022/10/07 05:46:02;;;;;;;7.53;2.15;;;;;;;5.31;93.28;99551.66;4107549;28;20216;-51
2022/10/07 05:48:07;;;;;;;2.75;2.42;;;;;;;5.28;92.99;99557.44;4107320;28;20258;-51
2022/10/07 05:50:08;;;;;;;2.67;2.10;;;;;;;5.27;93.31;99550.34;4127606;28;20270;-51
2022/10/07 05:52:10;;;;;;;10.00;2.45;;;;;;;5.27;93.52;99555.78;4127575;28;20627;-51
2022/10/07 05:54:15;;;;;;;5.07;1.98;;;;;;;5.24;93.75;99550.75;4124217;28;20819;-51
2022/10/07 05:56:21;;;;;;;3.97;2.03;;;;;;;5.29;93.58;99553.72;4095782;28;20248;-51
2022/10/07 05:58:23;;;;;;;2.17;1.90;;;;;;;5.26;93.64;99554.09;4124215;28;20313;-52
2022/10/07 06:00:24;;;;;;;2.58;1.92;;;;;;;5.30;93.75;99549.97;4110834;28;20724;-51
2022/10/07 06:02:27;;;;;;;2.10;1.90;;;;;;;5.35;93.53;99547.53;4126763;28;20277;-52
2022/10/07 06:04:29;;;;;;;3.50;1.98;;;;;;;5.34;93.61;99546.69;4125704;28;20225;-51
2022/10/07 06:06:30;;;;;;;2.17;1.98;;;;;;;5.28;93.09;99552.03;4109958;28;20270;-51
2022/10/07 06:08:32;;;;;;;3.40;2.22;;;;;;;5.26;93.36;99548.66;4125674;28;20301;-51
2022/10/07 06:13:06;;;;;;;2.33;2.13;;;;;;;5.22;93.23;99552.81;4110872;28;20232;-51
2022/10/07 06:15:09;;;;;;;3.58;2.25;;;;;;;5.20;93.21;99538.59;4125392;28;20218;-51
2022/10/07 06:17:10;;;;;;;5.45;1.70;;;;;;;5.19;93.26;99545.03;4109859;28;20634;-50
2022/10/07 06:19:21;;;;;;;1.65;1.55;;;;;;;5.23;93.49;99544.47;4127410;28;20210;-51
2022/10/07 06:21:26;;;;;;;2.30;2.10;;;;;;;5.22;93.67;99541.97;4125646;28;20206;-54
2022/10/07 06:23:34;;;;;;;4.55;3.60;;;;;;;5.25;93.53;99544.28;4110833;28;20315;-52
2022/10/07 06:25:36;;;;;;;1.75;1.65;;;;;;;5.26;93.64;99548.66;4126491;28;20300;-52
2022/10/07 06:27:38;;;;;;;2.05;1.60;;;;;;;5.30;93.78;99549.97;4106154;28;20215;-51
2022/10/07 06:29:39;;;;;;;1.80;1.70;;;;;;;5.33;94.00;99555.00;4124914;28;20673;-52
2022/10/07 06:31:41;;;;;;;2.13;1.63;;;;;;;5.36;93.83;99549.22;4127364;28;20245;-52
2022/10/07 06:33:43;;;;;;;1.70;1.58;;;;;;;5.40;94.09;99556.78;4127998;28;20236;-52
2022/10/07 06:35:47;;;;;;;1.92;1.83;;;;;;;5.45;94.03;99550.78;4125188;28;20230;-51
2022/10/07 06:37:49;;;;;;;5.18;1.60;;;;;;;5.47;94.02;99552.25;4114167;28;20293;-50
2022/10/07 06:39:50;;;;;;;2.80;2.45;;;;;;;5.52;93.97;99549.81;4109257;28;20581;-52
2022/10/07 06:41:57;;;;;;;2.90;1.70;;;;;;;5.51;93.97;99553.56;4126093;28;20222;-52
2022/10/07 06:43:59;;;;;;;2.63;2.05;;;;;;;5.47;94.22;99552.25;4124472;28;20260;-53
2022/10/07 06:46:03;;;;;;;3.22;2.95;;;;;;;5.49;94.20;99554.78;4108745;28;20622;-51
2022/10/07 06:48:05;;;;;;;2.05;1.73;;;;;;;5.56;94.51;99544.84;4106836;28;20234;-51
2022/10/07 06:50:07;;;;;;;2.20;1.90;;;;;;;5.59;94.47;99555.31;4109525;28;20691;-51
2022/10/07 06:52:09;;;;;;;2.47;2.28;;;;;;;5.62;94.09;99561.19;4110389;28;20606;-51
2022/10/07 06:54:11;;;;;;;2.50;2.22;;;;;;;5.70;93.85;99554.81;4111020;28;21047;-51
2022/10/07 06:56:13;;;;;;;2.80;2.60;;;;;;;5.68;94.27;99548.69;4111573;28;20259;-52
2022/10/07 06:58:15;;;;;;;3.67;3.38;;;;;;;5.77;94.08;99553.81;4124346;28;20209;-52
2022/10/07 07:00:17;;;;;;;4.22;3.90;;;;;;;5.76;94.12;99554.84;4111436;28;20691;-52
2022/10/07 07:02:18;;;;;;;8.23;4.72;;;;;;;5.92;93.56;99556.50;4123341;28;20214;-50
2022/10/07 07:04:20;;;;;;;5.00;4.20;;;;;;;5.92;93.63;99556.50;4107750;28;20302;-51
2022/10/07 07:06:22;;;;;;;4.57;4.18;;;;;;;5.98;93.59;99550.28;4109129;28;20700;-52
2022/10/07 07:08:30;;;;;;;5.10;4.60;;;;;;;6.22;93.09;99552.59;4126240;28;20684;-53
2022/10/07 07:10:36;;;;;;;6.32;5.43;;;;;;;6.56;93.12;99552.63;4129248;28;20215;-51
2022/10/07 07:12:38;;;;;;;7.70;5.05;;;;;;;6.90;94.72;99539.03;4125809;28;20213;-54
2022/10/07 07:14:42;;;;;;;5.65;4.38;;;;;;;7.60;96.02;99543.03;4123099;28;20235;-50
2022/10/07 07:16:44;;;;;;;7.25;5.20;;;;;;;8.06;95.03;99546.69;4122231;28;21730;-50
2022/10/07 07:18:57;;;;;;;4.50;3.92;;;;;;;8.63;92.05;99548.78;4099786;28;20775;-50
2022/10/07 07:21:02;;;;;;;6.72;3.55;;;;;;;9.36;91.96;99542.88;4101585;28;20212;-50
2022/10/07 07:23:06;;;;;;;3.17;2.97;;;;;;;9.61;89.75;99544.63;4097879;28;20206;-50
2022/10/07 07:25:11;;;;;;;3.38;2.53;;;;;;;10.04;87.34;99544.81;4116326;28;20217;-52
2022/10/07 07:27:13;;;;;;;3.72;2.83;;;;;;;9.94;87.17;99555.38;4100863;28;20215;-51
2022/10/07 07:29:15;;;;;;;6.03;2.92;;;;;;;9.34;85.48;99547.72;4102295;28;20207;-50
2022/10/07 07:31:17;;;;;;;14.70;3.50;;;;;;;9.55;88.99;99550.97;4122210;28;20210;-50
2022/10/07 07:33:19;;;;;;;8.10;3.67;;;;;;;10.91;86.88;99538.94;4118497;28;20231;-51
2022/10/07 07:35:26;;;;;;;8.48;4.25;;;;;;;11.14;83.62;99536.38;4117703;28;20232;-50
2022/10/07 07:37:29;;;;;;;3.20;2.53;;;;;;;12.09;81.32;99539.09;4120334;28;20212;-51
2022/10/07 07:39:33;;;;;;;3.40;2.78;;;;;;;12.65;78.94;99542.13;4120918;28;20249;-52
2022/10/07 07:41:39;;;;;;;7.90;2.45;;;;;;;11.17;79.07;99535.91;4122901;28;20214;-49
2022/10/07 07:43:41;;;;;;;3.45;2.67;;;;;;;10.42;83.15;99542.81;4121918;28;20917;-50
2022/10/07 07:45:43;;;;;;;4.30;2.95;;;;;;;11.04;84.54;99530.56;4105549;28;20210;-50
2022/10/07 07:47:48;;;;;;;3.65;2.95;;;;;;;12.06;81.26;99534.09;4118768;28;20229;-50
2022/10/07 07:49:49;;;;;;;2.72;2.53;;;;;;;13.19;78.57;99535.47;4103516;28;20207;-50
2022/10/07 07:51:51;;;;;;;13.98;3.10;;;;;;;13.24;74.96;99539.13;4106976;28;20212;-49
2022/10/07 07:53:53;;;;;;;12.00;2.90;;;;;;;13.63;73.57;99532.00;4120121;28;20313;-51
2022/10/07 07:55:55;;;;;;;3.30;2.72;;;;;;;13.48;72.77;99532.50;4123305;28;20260;-50
2022/10/07 07:57:57;;;;;;;3.63;2.38;;;;;;;12.66;75.94;99540.25;4105048;28;20305;-51
2022/10/07 07:59:59;;;;;;;4.25;1.73;;;;;;;11.51;79.50;99535.25;4122195;28;20874;-50
2022/10/07 08:02:01;;;;;;;3.47;2.10;;;;;;;11.78;81.01;99533.84;4119335;28;20205;-50
2022/10/07 08:04:03;;;;;;;5.07;2.10;;;;;;;11.67;81.88;99536.56;4118484;28;20232;-51
2022/10/07 08:06:06;;;;;;;3.95;1.85;;;;;;;11.82;81.28;99532.31;4105624;28;20206;-51
2022/10/07 08:08:11;;;;;;;4.25;2.22;;;;;;;11.45;81.71;99530.69;4103988;28;20203;-51
2022/10/07 08:10:13;;;;;;;4.78;1.52;;;;;;;12.38;82.31;99521.72;4111518;28;20211;-50
2022/10/07 08:12:14;;;;;;;4.72;1.60;;;;;;;13.05;79.76;99523.06;4109992;28;20317;-49
2022/10/07 08:14:16;;;;;;;2.88;1.90;;;;;;;12.14;79.71;99531.00;4121609;28;20234;-50
2022/10/07 08:16:22;;;;;;;9.07;2.40;;;;;;;13.72;78.29;99520.38;4121731;28;20261;-49
2022/10/07 08:18:23;;;;;;;17.05;2.42;;;;;;;14.18;75.92;99533.88;4104624;28;20206;-50
2022/10/07 08:20:25;;;;;;;3.10;1.75;;;;;;;14.59;73.57;99533.53;4102431;28;20656;-49
2022/10/07 08:22:27;;;;;;;2.50;1.90;;;;;;;14.89;73.51;99528.47;4119435;28;20198;-50
2022/10/07 08:24:29;;;;;;;2.15;2.00;;;;;;;15.18;73.80;99527.25;4119062;28;20320;-50
2022/10/07 08:26:32;;;;;;;2.15;1.98;;;;;;;15.75;72.62;99524.97;4107222;28;20576;-50
2022/10/07 08:28:35;;;;;;;3.17;1.70;;;;;;;15.41;71.50;99527.03;4088778;28;20215;-50
2022/10/07 08:30:37;;;;;;;2.88;2.03;;;;;;;15.51;71.32;99521.63;4119285;28;20664;-50
2022/10/07 08:32:39;;;;;;;5.47;2.35;;;;;;;15.24;71.95;99515.16;4123729;28;20217;-50
2022/10/07 08:34:40;;;;;;;4.55;1.83;;;;;;;15.49;70.93;99512.78;4120284;28;20349;-50
2022/10/07 08:36:46;;;;;;;2.50;1.60;;;;;;;16.67;68.75;99513.44;4121636;28;20261;-50
2022/10/07 08:38:48;;;;;;;2.13;1.40;;;;;;;16.75;68.22;99512.94;4119156;28;20790;-51
2022/10/07 08:40:51;;;;;;;7.45;2.03;;;;;;;16.17;67.95;99510.22;4103901;28;20692;-51
2022/10/07 08:42:53;;;;;;;3.80;1.75;;;;;;;17.10;67.76;99515.94;4119090;28;20214;-50
2022/10/07 08:44:55;;;;;;;5.25;1.90;;;;;;;17.00;65.24;99504.84;4118790;28;20301;-50
2022/10/07 08:47:37;;;;;;;3.63;1.45;;;;;;;16.98;65.95;99502.31;4118586;28;20260;-50
2022/10/07 08:50:08;;;;;;;3.90;1.92;;;;;;;17.05;66.73;99493.81;4084289;28;20593;-51
2022/10/07 08:52:29;;;;;;;5.45;1.73;;;;;;;16.81;66.99;99500.00;4120500;28;20209;-49
2022/10/07 08:54:32;;;;;;;3.78;1.92;;;;;;;17.12;66.84;99491.63;4123872;28;20227;-48
2022/10/07 08:56:34;;;;;;;2.72;1.50;;;;;;;17.17;66.71;99492.47;4104159;28;20248;-49
2022/10/07 08:59:00;;;;;;;4.35;1.40;;;;;;;17.81;63.81;99501.34;4101025;28;20226;-51
2022/10/07 09:01:16;;;;;;;2.63;1.35;;;;;;;18.04;63.61;99495.34;4121094;28;20217;-49
2022/10/07 09:03:30;;;;;;;4.72;1.58;;;;;;;16.48;68.85;99489.22;4122621;28;20271;-48
2022/10/07 09:05:37;;;;;;;5.72;1.55;;;;;;;17.04;66.75;99483.81;4106465;28;20277;-48
2022/10/07 09:07:46;;;;;;;2.53;1.25;;;;;;;17.12;67.51;99486.09;4122659;28;20210;-49
2022/10/07 09:09:55;;;;;;;2.47;1.10;;;;;;;17.72;66.99;99478.09;4122760;28;20231;-49
2022/10/07 09:11:59;;;;;;;2.88;1.40;;;;;;;17.60;65.17;99477.47;4116786;28;20209;-50
2022/10/07 09:14:24;;;;;;;4.47;1.55;;;;;;;16.79;66.08;99475.41;4085083;28;20605;-50
2022/10/07 09:16:30;;;;;;;9.48;1.77;;;;;;;17.32;66.70;99475.13;4092931;28;20227;-49
2022/10/07 09:18:35;;;;;;;4.20;1.45;;;;;;;17.23;65.83;99472.03;4118777;28;20206;-50
2022/10/07 09:20:41;;;;;;;3.40;1.30;;;;;;;18.00;65.36;99474.81;4119123;28;20198;-49
2022/10/07 09:22:50;;;;;;;2.60;1.55;;;;;;;18.40;64.34;99466.56;4105429;28;20211;-52
2022/10/07 09:24:58;;;;;;;5.45;1.85;;;;;;;18.87;63.02;99467.06;4119494;28;20679;-51
2022/10/07 09:27:03;;;;;;;4.15;1.70;;;;;;;18.35;66.21;99469.31;4119727;28;20205;-49
2022/10/07 09:29:07;;;;;;;3.13;1.20;;;;;;;18.44;63.83;99464.91;4122684;28;20294;-49
2022/10/07 09:31:12;;;;;;;3.53;1.63;;;;;;;18.87;63.13;99453.19;4120763;28;20202;-49
2022/10/07 09:33:18;;;;;;;4.50;1.55;;;;;;;18.92;63.25;99453.19;4120056;28;20229;-52
2022/10/07 09:35:22;;;;;;;4.15;1.30;;;;;;;19.42;61.85;99453.03;4119490;28;20687;-49
2022/10/07 09:37:26;;;;;;;5.07;1.40;;;;;;;17.12;65.63;99458.44;4122774;28;20580;-52
2022/10/07 09:39:28;;;;;;;5.22;1.60;;;;;;;17.18;67.94;99451.84;4122580;28;20241;-49
2022/10/07 09:41:34;;;;;;;7.53;2.17;;;;;;;17.97;66.08;99455.97;4118853;28;20241;-51
2022/10/07 09:43:58;;;;;;;4.15;1.85;;;;;;;18.57;66.22;99450.50;4103495;28;20234;-50
2022/10/07 09:46:01;;;;;;;3.30;1.23;;;;;;;19.17;65.08;99450.34;4120997;28;20296;-50
2022/10/07 09:48:19;;;;;;;7.28;1.30;;;;;;;19.21;61.11;99440.38;4117609;28;20256;-50
2022/10/07 09:50:38;;;;;;;6.50;1.80;;;;;;;18.95;63.54;99442.38;4106702;28;20204;-51
2022/10/07 09:52:54;;;;;;;4.82;1.95;;;;;;;18.80;63.65;99438.78;4118852;28;20667;-52
2022/10/07 09:55:31;;;;;;;6.70;1.95;;;;;;;18.01;65.26;99440.47;4119359;28;20215;-50
2022/10/07 09:57:34;;;;;;;6.53;2.10;;;;;;;19.10;63.75;99434.00;4118762;28;20212;-49
2022/10/07 09:59:36;;;;;;;6.32;1.73;;;;;;;19.45;62.31;99435.84;4118492;28;20333;-49